Sherwood, North Dakota
Current Conditions -  °F | °C
As of 2:58 AM on Wednesday 22 Oct 2014 (Local Time) from KMIB Reporting Station
Clear Clear  
Wind Chill: 59°   Ceiling: Unl
Heat Index: 59°   Visibility: 10mi
Dew Point: 50°   Wind: 8mph
Humidity: 71%   Direction: 250°WSW
Pressure: 29.59"   Gusts: NA
Location:  48.96°N, 101.63°W
Report Text: KMIB 220758Z AUTO 25007KT 10SM CLR 15/10 A2959 RMK AO2 RAB0746E0747DZB0747 SLP022 P0000 T01510099 $
Loading
Personal Weather Stations






























Interactive Weather Map
Tropical Storm Tracking
New forecast layout! Learn more

10-Day Weather Forecast

Advertisements
Track Severe Weather on mobile